sensor_id;sensor_type;location;lat;lon;timestamp;temperature;humidity
70154;DHT22;57519;51.494;-2.626;2023-08-12T00:00:54;15.77;87.05
70154;DHT22;57519;51.494;-2.626;2023-08-12T00:03:20;15.78;87.03
70154;DHT22;57519;51.494;-2.626;2023-08-12T00:05:45;15.74;87.16
70154;DHT22;57519;51.494;-2.626;2023-08-12T00:08:11;15.77;87.06
70154;DHT22;57519;51.494;-2.626;2023-08-12T00:10:36;15.74;87.24
70154;DHT22;57519;51.494;-2.626;2023-08-12T00:13:04;15.80;87.10
70154;DHT22;57519;51.494;-2.626;2023-08-12T00:15:29;15.83;86.81
70154;DHT22;57519;51.494;-2.626;2023-08-12T00:17:54;15.88;86.57
70154;DHT22;57519;51.494;-2.626;2023-08-12T00:20:20;15.80;86.65
70154;DHT22;57519;51.494;-2.626;2023-08-12T00:22:45;15.78;86.92
70154;DHT22;57519;51.494;-2.626;2023-08-12T00:25:11;15.84;86.86
70154;DHT22;57519;51.494;-2.626;2023-08-12T00:27:37;15.88;86.66
70154;DHT22;57519;51.494;-2.626;2023-08-12T00:30:04;15.81;86.70
70154;DHT22;57519;51.494;-2.626;2023-08-12T00:32:29;15.74;86.74
70154;DHT22;57519;51.494;-2.626;2023-08-12T00:34:55;15.74;87.02
70154;DHT22;57519;51.494;-2.626;2023-08-12T00:37:21;15.81;86.77
70154;DHT22;57519;51.494;-2.626;2023-08-12T00:39:46;15.73;87.06
70154;DHT22;57519;51.494;-2.626;2023-08-12T00:42:11;15.74;87.11
70154;DHT22;57519;51.494;-2.626;2023-08-12T00:44:37;15.77;87.26
70154;DHT22;57519;51.494;-2.626;2023-08-12T00:47:03;15.74;87.31
70154;DHT22;57519;51.494;-2.626;2023-08-12T00:49:28;15.74;87.20
70154;DHT22;57519;51.494;-2.626;2023-08-12T00:51:54;15.73;87.28
70154;DHT22;57519;51.494;-2.626;2023-08-12T00:54:21;15.58;87.74
70154;DHT22;57519;51.494;-2.626;2023-08-12T00:56:48;15.50;87.87
70154;DHT22;57519;51.494;-2.626;2023-08-12T00:59:14;15.39;88.35
70154;DHT22;57519;51.494;-2.626;2023-08-12T01:01:42;15.32;88.59
70154;DHT22;57519;51.494;-2.626;2023-08-12T01:04:08;15.29;88.71
70154;DHT22;57519;51.494;-2.626;2023-08-12T01:06:33;15.26;88.89
70154;DHT22;57519;51.494;-2.626;2023-08-12T01:09:00;15.33;88.93
70154;DHT22;57519;51.494;-2.626;2023-08-12T01:11:29;15.37;88.61
70154;DHT22;57519;51.494;-2.626;2023-08-12T01:14:04;15.30;88.64
70154;DHT22;57519;51.494;-2.626;2023-08-12T01:16:33;15.27;89.01
70154;DHT22;57519;51.494;-2.626;2023-08-12T01:19:05;15.35;88.82
70154;DHT22;57519;51.494;-2.626;2023-08-12T01:21:32;15.36;88.83
70154;DHT22;57519;51.494;-2.626;2023-08-12T01:23:58;15.32;88.99
70154;DHT22;57519;51.494;-2.626;2023-08-12T01:26:24;15.35;88.93
70154;DHT22;57519;51.494;-2.626;2023-08-12T01:28:50;15.35;88.87
70154;DHT22;57519;51.494;-2.626;2023-08-12T01:31:19;15.33;89.19
70154;DHT22;57519;51.494;-2.626;2023-08-12T01:33:53;15.44;88.95
70154;DHT22;57519;51.494;-2.626;2023-08-12T01:36:24;15.63;88.59
70154;DHT22;57519;51.494;-2.626;2023-08-12T01:38:51;15.70;88.30
70154;DHT22;57519;51.494;-2.626;2023-08-12T01:41:18;15.78;87.92
70154;DHT22;57519;51.494;-2.626;2023-08-12T01:43:45;15.90;87.45
70154;DHT22;57519;51.494;-2.626;2023-08-12T01:46:11;15.97;87.12
70154;DHT22;57519;51.494;-2.626;2023-08-12T01:48:37;15.94;86.98
70154;DHT22;57519;51.494;-2.626;2023-08-12T01:51:02;15.93;87.12
70154;DHT22;57519;51.494;-2.626;2023-08-12T01:53:28;15.83;87.21
70154;DHT22;57519;51.494;-2.626;2023-08-12T01:55:53;15.77;87.53
70154;DHT22;57519;51.494;-2.626;2023-08-12T01:58:19;15.71;87.78
70154;DHT22;57519;51.494;-2.626;2023-08-12T02:00:45;15.68;88.04
70154;DHT22;57519;51.494;-2.626;2023-08-12T02:03:10;15.68;87.96
70154;DHT22;57519;51.494;-2.626;2023-08-12T02:05:35;15.66;88.09
70154;DHT22;57519;51.494;-2.626;2023-08-12T02:08:03;15.66;88.35
70154;DHT22;57519;51.494;-2.626;2023-08-12T02:10:29;15.68;88.22
70154;DHT22;57519;51.494;-2.626;2023-08-12T02:12:54;15.74;88.11
70154;DHT22;57519;51.494;-2.626;2023-08-12T02:15:20;15.70;88.21
70154;DHT22;57519;51.494;-2.626;2023-08-12T02:17:45;15.75;88.24
70154;DHT22;57519;51.494;-2.626;2023-08-12T02:20:11;15.71;88.30
70154;DHT22;57519;51.494;-2.626;2023-08-12T02:22:36;15.74;88.32
70154;DHT22;57519;51.494;-2.626;2023-08-12T02:25:02;15.75;88.27
70154;DHT22;57519;51.494;-2.626;2023-08-12T02:27:27;15.74;88.29
70154;DHT22;57519;51.494;-2.626;2023-08-12T02:29:53;15.71;88.39
70154;DHT22;57519;51.494;-2.626;2023-08-12T02:32:18;15.68;88.50
70154;DHT22;57519;51.494;-2.626;2023-08-12T02:37:09;15.61;88.63
70154;DHT22;57519;51.494;-2.626;2023-08-12T02:39:35;15.58;88.71
70154;DHT22;57519;51.494;-2.626;2023-08-12T02:42:00;15.54;88.83
70154;DHT22;57519;51.494;-2.626;2023-08-12T02:44:25;15.44;89.03
70154;DHT22;57519;51.494;-2.626;2023-08-12T02:46:51;15.47;89.24
70154;DHT22;57519;51.494;-2.626;2023-08-12T02:49:16;15.53;89.33
70154;DHT22;57519;51.494;-2.626;2023-08-12T02:51:41;15.56;89.25
70154;DHT22;57519;51.494;-2.626;2023-08-12T02:54:07;15.63;89.16
70154;DHT22;57519;51.494;-2.626;2023-08-12T02:56:32;15.64;89.21
70154;DHT22;57519;51.494;-2.626;2023-08-12T02:58:58;15.66;89.25
70154;DHT22;57519;51.494;-2.626;2023-08-12T03:01:23;15.67;89.25
70154;DHT22;57519;51.494;-2.626;2023-08-12T03:03:50;15.70;89.24
70154;DHT22;57519;51.494;-2.626;2023-08-12T03:06:15;15.74;89.18
70154;DHT22;57519;51.494;-2.626;2023-08-12T03:08:41;15.73;88.97
70154;DHT22;57519;51.494;-2.626;2023-08-12T03:11:06;15.77;88.97
70154;DHT22;57519;51.494;-2.626;2023-08-12T03:13:32;15.77;89.00
70154;DHT22;57519;51.494;-2.626;2023-08-12T03:15:57;15.81;88.95
70154;DHT22;57519;51.494;-2.626;2023-08-12T03:18:22;15.81;88.73
70154;DHT22;57519;51.494;-2.626;2023-08-12T03:20:48;15.84;88.58
70154;DHT22;57519;51.494;-2.626;2023-08-12T03:23:14;15.90;88.49
70154;DHT22;57519;51.494;-2.626;2023-08-12T03:25:39;15.87;88.51
70154;DHT22;57519;51.494;-2.626;2023-08-12T03:28:05;15.90;88.43
70154;DHT22;57519;51.494;-2.626;2023-08-12T03:30:30;15.85;88.57
70154;DHT22;57519;51.494;-2.626;2023-08-12T03:32:56;15.84;88.60
70154;DHT22;57519;51.494;-2.626;2023-08-12T03:35:22;15.83;88.74
70154;DHT22;57519;51.494;-2.626;2023-08-12T03:37:47;15.85;88.73
70154;DHT22;57519;51.494;-2.626;2023-08-12T03:40:12;15.85;88.73
70154;DHT22;57519;51.494;-2.626;2023-08-12T03:42:38;15.83;88.73
70154;DHT22;57519;51.494;-2.626;2023-08-12T03:45:04;15.84;88.92
70154;DHT22;57519;51.494;-2.626;2023-08-12T03:47:29;15.80;88.91
70154;DHT22;57519;51.494;-2.626;2023-08-12T03:49:55;15.84;88.96
70154;DHT22;57519;51.494;-2.626;2023-08-12T03:52:20;15.84;88.97
70154;DHT22;57519;51.494;-2.626;2023-08-12T03:54:46;15.88;88.93
70154;DHT22;57519;51.494;-2.626;2023-08-12T03:57:11;15.90;88.78
70154;DHT22;57519;51.494;-2.626;2023-08-12T03:59:37;15.91;88.56
70154;DHT22;57519;51.494;-2.626;2023-08-12T04:02:02;15.87;88.46
70154;DHT22;57519;51.494;-2.626;2023-08-12T04:04:29;15.90;88.31
70154;DHT22;57519;51.494;-2.626;2023-08-12T04:06:54;15.90;88.22
70154;DHT22;57519;51.494;-2.626;2023-08-12T04:09:20;15.90;88.30
70154;DHT22;57519;51.494;-2.626;2023-08-12T04:11:46;15.93;88.38
70154;DHT22;57519;51.494;-2.626;2023-08-12T04:14:13;16.00;88.13
70154;DHT22;57519;51.494;-2.626;2023-08-12T04:16:39;16.01;87.84
70154;DHT22;57519;51.494;-2.626;2023-08-12T04:19:04;16.02;87.84
70154;DHT22;57519;51.494;-2.626;2023-08-12T04:21:30;16.04;87.38
70154;DHT22;57519;51.494;-2.626;2023-08-12T04:23:55;16.06;87.47
70154;DHT22;57519;51.494;-2.626;2023-08-12T04:26:21;16.00;87.52
70154;DHT22;57519;51.494;-2.626;2023-08-12T04:28:46;15.98;87.45
70154;DHT22;57519;51.494;-2.626;2023-08-12T04:31:11;15.97;87.35
70154;DHT22;57519;51.494;-2.626;2023-08-12T04:33:37;15.94;87.29
70154;DHT22;57519;51.494;-2.626;2023-08-12T04:36:03;15.93;87.30
70154;DHT22;57519;51.494;-2.626;2023-08-12T04:38:28;15.93;87.23
70154;DHT22;57519;51.494;-2.626;2023-08-12T04:40:53;15.94;87.17
70154;DHT22;57519;51.494;-2.626;2023-08-12T04:43:20;15.95;87.05
70154;DHT22;57519;51.494;-2.626;2023-08-12T04:45:46;15.93;87.00
70154;DHT22;57519;51.494;-2.626;2023-08-12T04:48:12;15.93;87.06
70154;DHT22;57519;51.494;-2.626;2023-08-12T04:50:38;15.88;87.13
70154;DHT22;57519;51.494;-2.626;2023-08-12T04:53:04;15.85;87.31
70154;DHT22;57519;51.494;-2.626;2023-08-12T04:55:30;15.85;87.32
70154;DHT22;57519;51.494;-2.626;2023-08-12T04:57:56;15.88;87.28
70154;DHT22;57519;51.494;-2.626;2023-08-12T05:00:22;15.91;87.12
70154;DHT22;57519;51.494;-2.626;2023-08-12T05:02:48;15.93;86.98
70154;DHT22;57519;51.494;-2.626;2023-08-12T05:05:13;15.93;87.00
70154;DHT22;57519;51.494;-2.626;2023-08-12T05:07:39;15.94;86.96
70154;DHT22;57519;51.494;-2.626;2023-08-12T05:10:04;16.00;86.74
70154;DHT22;57519;51.494;-2.626;2023-08-12T05:12:30;16.08;86.48
70154;DHT22;57519;51.494;-2.626;2023-08-12T05:14:55;16.22;86.02
70154;DHT22;57519;51.494;-2.626;2023-08-12T05:17:21;16.32;85.72
70154;DHT22;57519;51.494;-2.626;2023-08-12T05:19:46;16.43;85.26
70154;DHT22;57519;51.494;-2.626;2023-08-12T05:22:12;16.49;84.86
70154;DHT22;57519;51.494;-2.626;2023-08-12T05:24:37;16.53;84.70
70154;DHT22;57519;51.494;-2.626;2023-08-12T05:27:03;16.57;84.68
70154;DHT22;57519;51.494;-2.626;2023-08-12T05:29:29;16.63;84.27
70154;DHT22;57519;51.494;-2.626;2023-08-12T05:31:55;16.63;84.33
70154;DHT22;57519;51.494;-2.626;2023-08-12T05:34:23;16.64;84.36
70154;DHT22;57519;51.494;-2.626;2023-08-12T05:36:49;16.62;84.64
70154;DHT22;57519;51.494;-2.626;2023-08-12T05:39:14;16.66;84.18
70154;DHT22;57519;51.494;-2.626;2023-08-12T05:41:40;16.69;84.03
70154;DHT22;57519;51.494;-2.626;2023-08-12T05:44:06;16.74;84.02
70154;DHT22;57519;51.494;-2.626;2023-08-12T05:46:32;16.79;83.88
70154;DHT22;57519;51.494;-2.626;2023-08-12T05:51:22;16.85;83.68
70154;DHT22;57519;51.494;-2.626;2023-08-12T05:53:48;16.87;83.82
70154;DHT22;57519;51.494;-2.626;2023-08-12T05:56:14;16.87;83.64
70154;DHT22;57519;51.494;-2.626;2023-08-12T05:58:39;16.90;83.89
70154;DHT22;57519;51.494;-2.626;2023-08-12T06:01:05;16.94;83.27
70154;DHT22;57519;51.494;-2.626;2023-08-12T06:03:30;16.98;83.37
70154;DHT22;57519;51.494;-2.626;2023-08-12T06:05:58;16.95;83.74
70154;DHT22;57519;51.494;-2.626;2023-08-12T06:08:23;16.97;84.09
70154;DHT22;57519;51.494;-2.626;2023-08-12T06:10:49;17.01;83.85
70154;DHT22;57519;51.494;-2.626;2023-08-12T06:13:14;17.03;83.81
70154;DHT22;57519;51.494;-2.626;2023-08-12T06:15:39;17.03;83.75
70154;DHT22;57519;51.494;-2.626;2023-08-12T06:18:05;17.06;83.48
70154;DHT22;57519;51.494;-2.626;2023-08-12T06:20:31;17.11;83.12
70154;DHT22;57519;51.494;-2.626;2023-08-12T06:22:56;17.12;83.22
70154;DHT22;57519;51.494;-2.626;2023-08-12T06:25:21;17.14;82.99
70154;DHT22;57519;51.494;-2.626;2023-08-12T06:27:47;17.17;83.13
70154;DHT22;57519;51.494;-2.626;2023-08-12T06:30:13;17.15;83.11
70154;DHT22;57519;51.494;-2.626;2023-08-12T06:32:39;17.21;83.03
70154;DHT22;57519;51.494;-2.626;2023-08-12T06:35:05;17.24;83.39
70154;DHT22;57519;51.494;-2.626;2023-08-12T06:37:30;17.35;82.84
70154;DHT22;57519;51.494;-2.626;2023-08-12T06:39:56;17.38;82.92
70154;DHT22;57519;51.494;-2.626;2023-08-12T06:42:22;17.38;82.98
70154;DHT22;57519;51.494;-2.626;2023-08-12T06:44:54;17.43;82.90
70154;DHT22;57519;51.494;-2.626;2023-08-12T06:47:20;17.45;82.76
70154;DHT22;57519;51.494;-2.626;2023-08-12T06:49:45;17.45;83.11
70154;DHT22;57519;51.494;-2.626;2023-08-12T06:52:11;17.52;82.94
70154;DHT22;57519;51.494;-2.626;2023-08-12T06:54:37;17.46;82.98
70154;DHT22;57519;51.494;-2.626;2023-08-12T06:57:03;17.53;83.47
70154;DHT22;57519;51.494;-2.626;2023-08-12T06:59:28;17.57;83.50
70154;DHT22;57519;51.494;-2.626;2023-08-12T07:01:53;17.59;83.51
70154;DHT22;57519;51.494;-2.626;2023-08-12T07:04:19;17.72;82.85
70154;DHT22;57519;51.494;-2.626;2023-08-12T07:06:44;17.77;82.60
70154;DHT22;57519;51.494;-2.626;2023-08-12T07:09:10;17.75;82.94
70154;DHT22;57519;51.494;-2.626;2023-08-12T07:11:35;17.93;83.00
70154;DHT22;57519;51.494;-2.626;2023-08-12T07:14:00;18.17;82.25
70154;DHT22;57519;51.494;-2.626;2023-08-12T07:16:26;18.27;81.72
70154;DHT22;57519;51.494;-2.626;2023-08-12T07:18:51;18.32;81.72
70154;DHT22;57519;51.494;-2.626;2023-08-12T07:21:17;18.53;81.14
70154;DHT22;57519;51.494;-2.626;2023-08-12T07:23:42;18.85;80.57
70154;DHT22;57519;51.494;-2.626;2023-08-12T07:26:07;18.95;79.99
70154;DHT22;57519;51.494;-2.626;2023-08-12T07:28:33;18.98;79.71
70154;DHT22;57519;51.494;-2.626;2023-08-12T07:31:01;19.09;79.21
70154;DHT22;57519;51.494;-2.626;2023-08-12T07:33:26;19.18;79.25
70154;DHT22;57519;51.494;-2.626;2023-08-12T07:35:52;19.17;78.74
70154;DHT22;57519;51.494;-2.626;2023-08-12T07:38:20;19.24;78.66
70154;DHT22;57519;51.494;-2.626;2023-08-12T07:40:45;19.21;78.46
70154;DHT22;57519;51.494;-2.626;2023-08-12T07:43:11;19.39;77.71
70154;DHT22;57519;51.494;-2.626;2023-08-12T07:45:36;19.35;77.17
70154;DHT22;57519;51.494;-2.626;2023-08-12T07:48:02;19.16;76.63
70154;DHT22;57519;51.494;-2.626;2023-08-12T07:50:28;19.26;77.52
70154;DHT22;57519;51.494;-2.626;2023-08-12T07:52:54;19.31;77.04
70154;DHT22;57519;51.494;-2.626;2023-08-12T07:55:19;19.28;77.21
70154;DHT22;57519;51.494;-2.626;2023-08-12T07:57:45;19.21;77.61
70154;DHT22;57519;51.494;-2.626;2023-08-12T08:00:11;19.17;78.11
70154;DHT22;57519;51.494;-2.626;2023-08-12T08:02:38;19.10;77.79
70154;DHT22;57519;51.494;-2.626;2023-08-12T08:05:04;19.03;77.06
70154;DHT22;57519;51.494;-2.626;2023-08-12T08:07:29;18.89;77.75
70154;DHT22;57519;51.494;-2.626;2023-08-12T08:09:55;18.85;77.54
70154;DHT22;57519;51.494;-2.626;2023-08-12T08:12:20;18.98;76.95
70154;DHT22;57519;51.494;-2.626;2023-08-12T08:14:46;19.16;76.89
70154;DHT22;57519;51.494;-2.626;2023-08-12T08:17:11;19.37;76.45
70154;DHT22;57519;51.494;-2.626;2023-08-12T08:19:36;19.50;76.62
70154;DHT22;57519;51.494;-2.626;2023-08-12T08:22:02;19.45;76.33
70154;DHT22;57519;51.494;-2.626;2023-08-12T08:24:28;19.53;76.30
70154;DHT22;57519;51.494;-2.626;2023-08-12T08:26:54;19.57;76.33
70154;DHT22;57519;51.494;-2.626;2023-08-12T08:29:19;19.55;76.02
70154;DHT22;57519;51.494;-2.626;2023-08-12T08:31:44;19.68;75.75
70154;DHT22;57519;51.494;-2.626;2023-08-12T08:34:10;19.72;75.37
70154;DHT22;57519;51.494;-2.626;2023-08-12T08:36:35;19.87;74.41
70154;DHT22;57519;51.494;-2.626;2023-08-12T08:39:01;19.86;74.65
70154;DHT22;57519;51.494;-2.626;2023-08-12T08:41:30;19.96;74.78
70154;DHT22;57519;51.494;-2.626;2023-08-12T08:44:02;20.05;73.89
70154;DHT22;57519;51.494;-2.626;2023-08-12T08:46:30;20.14;73.90
70154;DHT22;57519;51.494;-2.626;2023-08-12T08:48:58;20.32;72.89
70154;DHT22;57519;51.494;-2.626;2023-08-12T08:51:24;20.51;73.24
70154;DHT22;57519;51.494;-2.626;2023-08-12T08:53:51;20.63;73.06
70154;DHT22;57519;51.494;-2.626;2023-08-12T08:56:19;20.82;72.60
70154;DHT22;57519;51.494;-2.626;2023-08-12T08:58:46;20.87;71.76
70154;DHT22;57519;51.494;-2.626;2023-08-12T09:01:11;20.95;71.88
70154;DHT22;57519;51.494;-2.626;2023-08-12T09:03:39;20.95;71.15
70154;DHT22;57519;51.494;-2.626;2023-08-12T09:06:05;21.00;71.23
70154;DHT22;57519;51.494;-2.626;2023-08-12T09:08:33;20.82;71.80
70154;DHT22;57519;51.494;-2.626;2023-08-12T09:11:00;20.51;71.86
70154;DHT22;57519;51.494;-2.626;2023-08-12T09:13:27;20.57;72.09
70154;DHT22;57519;51.494;-2.626;2023-08-12T09:15:53;20.54;72.75
70154;DHT22;57519;51.494;-2.626;2023-08-12T09:18:18;20.78;72.44
70154;DHT22;57519;51.494;-2.626;2023-08-12T09:20:44;20.88;72.26
70154;DHT22;57519;51.494;-2.626;2023-08-12T09:23:10;21.23;70.91
70154;DHT22;57519;51.494;-2.626;2023-08-12T09:25:41;21.16;71.24
70154;DHT22;57519;51.494;-2.626;2023-08-12T09:28:11;21.32;70.66
70154;DHT22;57519;51.494;-2.626;2023-08-12T09:30:37;21.22;70.90
70154;DHT22;57519;51.494;-2.626;2023-08-12T09:33:05;21.23;70.31
70154;DHT22;57519;51.494;-2.626;2023-08-12T09:35:37;21.37;69.50
70154;DHT22;57519;51.494;-2.626;2023-08-12T09:38:04;21.50;69.94
70154;DHT22;57519;51.494;-2.626;2023-08-12T09:40:33;21.46;69.69
70154;DHT22;57519;51.494;-2.626;2023-08-12T09:42:58;21.32;69.85
70154;DHT22;57519;51.494;-2.626;2023-08-12T09:45:25;21.43;69.44
70154;DHT22;57519;51.494;-2.626;2023-08-12T09:47:51;21.39;70.03
70154;DHT22;57519;51.494;-2.626;2023-08-12T09:50:17;21.39;69.66
70154;DHT22;57519;51.494;-2.626;2023-08-12T09:52:42;21.70;69.27
70154;DHT22;57519;51.494;-2.626;2023-08-12T09:55:11;21.87;69.37
70154;DHT22;57519;51.494;-2.626;2023-08-12T09:57:41;21.78;68.74
70154;DHT22;57519;51.494;-2.626;2023-08-12T10:00:08;21.47;69.09
70154;DHT22;57519;51.494;-2.626;2023-08-12T10:02:40;21.36;69.11
70154;DHT22;57519;51.494;-2.626;2023-08-12T10:05:09;21.06;70.05
70154;DHT22;57519;51.494;-2.626;2023-08-12T10:07:36;21.13;69.52
70154;DHT22;57519;51.494;-2.626;2023-08-12T10:10:03;21.08;70.47
70154;DHT22;57519;51.494;-2.626;2023-08-12T10:12:30;21.12;71.14
70154;DHT22;57519;51.494;-2.626;2023-08-12T10:14:56;21.30;70.79
70154;DHT22;57519;51.494;-2.626;2023-08-12T10:17:22;21.50;70.59
70154;DHT22;57519;51.494;-2.626;2023-08-12T10:19:48;21.64;69.42
70154;DHT22;57519;51.494;-2.626;2023-08-12T10:22:16;21.71;68.64
70154;DHT22;57519;51.494;-2.626;2023-08-12T10:24:42;21.56;69.80
70154;DHT22;57519;51.494;-2.626;2023-08-12T10:27:10;21.60;70.71
70154;DHT22;57519;51.494;-2.626;2023-08-12T10:29:38;21.78;70.19
70154;DHT22;57519;51.494;-2.626;2023-08-12T10:32:03;21.88;70.21
70154;DHT22;57519;51.494;-2.626;2023-08-12T10:34:29;22.06;69.72
70154;DHT22;57519;51.494;-2.626;2023-08-12T10:36:56;22.52;69.66
70154;DHT22;57519;51.494;-2.626;2023-08-12T10:39:32;22.60;69.06
70154;DHT22;57519;51.494;-2.626;2023-08-12T10:41:58;22.45;68.06
70154;DHT22;57519;51.494;-2.626;2023-08-12T10:44:38;22.50;68.64
70154;DHT22;57519;51.494;-2.626;2023-08-12T10:47:09;22.21;68.29
70154;DHT22;57519;51.494;-2.626;2023-08-12T10:49:42;22.04;70.09
70154;DHT22;57519;51.494;-2.626;2023-08-12T10:52:28;22.00;70.41
70154;DHT22;57519;51.494;-2.626;2023-08-12T10:57:44;22.06;69.92
70154;DHT22;57519;51.494;-2.626;2023-08-12T11:00:13;22.19;70.68
70154;DHT22;57519;51.494;-2.626;2023-08-12T11:02:38;22.05;72.75
70154;DHT22;57519;51.494;-2.626;2023-08-12T11:05:12;21.40;73.94
70154;DHT22;57519;51.494;-2.626;2023-08-12T11:10:16;19.78;83.28
70154;DHT22;57519;51.494;-2.626;2023-08-12T11:12:56;19.02;85.66
70154;DHT22;57519;51.494;-2.626;2023-08-12T11:15:42;18.88;87.75
70154;DHT22;57519;51.494;-2.626;2023-08-12T11:18:10;19.10;88.00
70154;DHT22;57519;51.494;-2.626;2023-08-12T11:20:38;19.61;87.90
70154;DHT22;57519;51.494;-2.626;2023-08-12T11:23:08;19.97;87.15
70154;DHT22;57519;51.494;-2.626;2023-08-12T11:25:35;20.14;87.19
70154;DHT22;57519;51.494;-2.626;2023-08-12T11:28:01;20.27;85.99
70154;DHT22;57519;51.494;-2.626;2023-08-12T11:30:27;20.13;85.85
70154;DHT22;57519;51.494;-2.626;2023-08-12T11:32:54;20.05;86.05
70154;DHT22;57519;51.494;-2.626;2023-08-12T11:35:20;19.87;83.99
70154;DHT22;57519;51.494;-2.626;2023-08-12T11:37:49;20.00;85.38
70154;DHT22;57519;51.494;-2.626;2023-08-12T11:40:17;20.00;84.29
70154;DHT22;57519;51.494;-2.626;2023-08-12T11:42:47;19.90;82.80
70154;DHT22;57519;51.494;-2.626;2023-08-12T11:45:15;20.12;83.23
70154;DHT22;57519;51.494;-2.626;2023-08-12T11:47:41;20.26;83.89
70154;DHT22;57519;51.494;-2.626;2023-08-12T11:50:09;20.29;82.43
70154;DHT22;57519;51.494;-2.626;2023-08-12T11:52:36;20.29;81.93
70154;DHT22;57519;51.494;-2.626;2023-08-12T11:55:01;20.50;81.49
70154;DHT22;57519;51.494;-2.626;2023-08-12T11:57:27;20.55;81.47
70154;DHT22;57519;51.494;-2.626;2023-08-12T11:59:58;20.64;82.20
70154;DHT22;57519;51.494;-2.626;2023-08-12T12:02:25;20.61;81.64
70154;DHT22;57519;51.494;-2.626;2023-08-12T12:04:51;20.80;80.98
70154;DHT22;57519;51.494;-2.626;2023-08-12T12:07:22;20.81;79.01
70154;DHT22;57519;51.494;-2.626;2023-08-12T12:09:51;21.12;78.35
70154;DHT22;57519;51.494;-2.626;2023-08-12T12:12:17;21.03;78.52
70154;DHT22;57519;51.494;-2.626;2023-08-12T12:14:42;21.13;78.86
70154;DHT22;57519;51.494;-2.626;2023-08-12T12:17:08;21.03;78.19
70154;DHT22;57519;51.494;-2.626;2023-08-12T12:19:35;21.05;78.48
70154;DHT22;57519;51.494;-2.626;2023-08-12T12:22:03;21.32;76.83
70154;DHT22;57519;51.494;-2.626;2023-08-12T12:24:29;21.63;76.63
70154;DHT22;57519;51.494;-2.626;2023-08-12T12:26:56;22.23;76.22
70154;DHT22;57519;51.494;-2.626;2023-08-12T12:29:21;22.53;74.69
70154;DHT22;57519;51.494;-2.626;2023-08-12T12:31:48;22.86;74.27
70154;DHT22;57519;51.494;-2.626;2023-08-12T12:34:14;22.80;74.35
70154;DHT22;57519;51.494;-2.626;2023-08-12T12:36:40;22.57;73.22
70154;DHT22;57519;51.494;-2.626;2023-08-12T12:39:06;22.06;73.52
70154;DHT22;57519;51.494;-2.626;2023-08-12T12:41:32;21.63;74.83
70154;DHT22;57519;51.494;-2.626;2023-08-12T12:44:00;21.36;76.56
70154;DHT22;57519;51.494;-2.626;2023-08-12T12:46:26;21.09;76.64
70154;DHT22;57519;51.494;-2.626;2023-08-12T12:48:52;20.88;77.57
70154;DHT22;57519;51.494;-2.626;2023-08-12T12:51:17;20.39;80.84
70154;DHT22;57519;51.494;-2.626;2023-08-12T12:53:42;20.29;82.57
70154;DHT22;57519;51.494;-2.626;2023-08-12T12:56:08;20.06;83.88
70154;DHT22;57519;51.494;-2.626;2023-08-12T12:58:34;19.62;84.41
70154;DHT22;57519;51.494;-2.626;2023-08-12T13:01:01;19.51;84.93
70154;DHT22;57519;51.494;-2.626;2023-08-12T13:03:26;19.76;85.28
70154;DHT22;57519;51.494;-2.626;2023-08-12T13:05:52;19.82;83.88
70154;DHT22;57519;51.494;-2.626;2023-08-12T13:08:18;19.86;83.90
70154;DHT22;57519;51.494;-2.626;2023-08-12T13:10:43;20.02;84.75
70154;DHT22;57519;51.494;-2.626;2023-08-12T13:13:09;19.96;83.30
70154;DHT22;57519;51.494;-2.626;2023-08-12T13:15:35;19.90;82.05
70154;DHT22;57519;51.494;-2.626;2023-08-12T13:18:00;20.24;82.82
70154;DHT22;57519;51.494;-2.626;2023-08-12T13:20:26;20.27;81.91
70154;DHT22;57519;51.494;-2.626;2023-08-12T13:22:51;19.57;82.74
70154;DHT22;57519;51.494;-2.626;2023-08-12T13:25:17;19.21;82.22
70154;DHT22;57519;51.494;-2.626;2023-08-12T13:27:42;19.68;82.38
70154;DHT22;57519;51.494;-2.626;2023-08-12T13:30:08;19.65;80.17
70154;DHT22;57519;51.494;-2.626;2023-08-12T13:32:36;20.02;79.68
70154;DHT22;57519;51.494;-2.626;2023-08-12T13:35:02;20.37;78.17
70154;DHT22;57519;51.494;-2.626;2023-08-12T13:37:28;20.23;78.11
70154;DHT22;57519;51.494;-2.626;2023-08-12T13:39:53;20.33;77.64
70154;DHT22;57519;51.494;-2.626;2023-08-12T13:42:18;20.26;77.70
70154;DHT22;57519;51.494;-2.626;2023-08-12T13:44:44;20.13;76.36
70154;DHT22;57519;51.494;-2.626;2023-08-12T13:47:09;20.45;77.10
70154;DHT22;57519;51.494;-2.626;2023-08-12T13:49:35;20.77;75.97
70154;DHT22;57519;51.494;-2.626;2023-08-12T13:52:00;20.74;75.21
70154;DHT22;57519;51.494;-2.626;2023-08-12T13:54:25;20.87;75.50
70154;DHT22;57519;51.494;-2.626;2023-08-12T13:56:51;20.67;74.80
70154;DHT22;57519;51.494;-2.626;2023-08-12T13:59:16;21.09;75.14
70154;DHT22;57519;51.494;-2.626;2023-08-12T14:01:42;21.40;73.88
70154;DHT22;57519;51.494;-2.626;2023-08-12T14:04:07;21.40;73.24
70154;DHT22;57519;51.494;-2.626;2023-08-12T14:06:32;21.81;72.83
70154;DHT22;57519;51.494;-2.626;2023-08-12T14:08:58;21.60;72.76
70154;DHT22;57519;51.494;-2.626;2023-08-12T14:11:23;21.49;72.86
70154;DHT22;57519;51.494;-2.626;2023-08-12T14:13:49;21.75;73.28
70154;DHT22;57519;51.494;-2.626;2023-08-12T14:16:14;22.08;72.16
70154;DHT22;57519;51.494;-2.626;2023-08-12T14:18:39;21.93;71.36
70154;DHT22;57519;51.494;-2.626;2023-08-12T14:21:05;21.95;71.77
70154;DHT22;57519;51.494;-2.626;2023-08-12T14:23:31;21.70;72.00
70154;DHT22;57519;51.494;-2.626;2023-08-12T14:25:56;21.35;72.21
70154;DHT22;57519;51.494;-2.626;2023-08-12T14:28:22;21.10;73.99
70154;DHT22;57519;51.494;-2.626;2023-08-12T14:30:47;21.25;74.01
70154;DHT22;57519;51.494;-2.626;2023-08-12T14:33:15;21.70;72.76
70154;DHT22;57519;51.494;-2.626;2023-08-12T14:35:40;21.85;72.06
70154;DHT22;57519;51.494;-2.626;2023-08-12T14:38:06;21.83;70.28
70154;DHT22;57519;51.494;-2.626;2023-08-12T14:40:31;21.56;70.45
70154;DHT22;57519;51.494;-2.626;2023-08-12T14:42:57;21.53;71.17
70154;DHT22;57519;51.494;-2.626;2023-08-12T14:45:22;21.47;71.28
70154;DHT22;57519;51.494;-2.626;2023-08-12T14:47:47;21.67;71.20
70154;DHT22;57519;51.494;-2.626;2023-08-12T14:50:13;21.42;71.25
70154;DHT22;57519;51.494;-2.626;2023-08-12T14:52:38;21.53;70.96
70154;DHT22;57519;51.494;-2.626;2023-08-12T14:55:04;21.71;71.40
70154;DHT22;57519;51.494;-2.626;2023-08-12T14:57:29;21.36;71.24
70154;DHT22;57519;51.494;-2.626;2023-08-12T14:59:55;21.46;72.34
70154;DHT22;57519;51.494;-2.626;2023-08-12T15:02:21;21.60;71.42
70154;DHT22;57519;51.494;-2.626;2023-08-12T15:04:50;21.53;71.56
70154;DHT22;57519;51.494;-2.626;2023-08-12T15:07:15;21.36;71.60
70154;DHT22;57519;51.494;-2.626;2023-08-12T15:09:44;21.29;71.69
70154;DHT22;57519;51.494;-2.626;2023-08-12T15:12:09;21.42;72.19
70154;DHT22;57519;51.494;-2.626;2023-08-12T15:14:35;21.19;72.79
70154;DHT22;57519;51.494;-2.626;2023-08-12T15:17:00;20.74;72.97
70154;DHT22;57519;51.494;-2.626;2023-08-12T15:19:25;20.85;73.15